sensor_id;sensor_type;location;lat;lon;timestamp;P1;durP1;ratioP1;P2;durP2;ratioP2
2021;SDS011;1015;49.756;6.994;2022-10-01T00:00:23;4.80;;;4.30;;
2021;SDS011;1015;49.756;6.994;2022-10-01T00:02:51;4.87;;;4.20;;
2021;SDS011;1015;49.756;6.994;2022-10-01T00:05:19;4.73;;;4.23;;
2021;SDS011;1015;49.756;6.994;2022-10-01T00:07:46;4.40;;;4.00;;
2021;SDS011;1015;49.756;6.994;2022-10-01T00:10:14;4.20;;;3.80;;
2021;SDS011;1015;49.756;6.994;2022-10-01T00:12:44;4.30;;;3.90;;
2021;SDS011;1015;49.756;6.994;2022-10-01T00:15:13;4.40;;;3.77;;
2021;SDS011;1015;49.756;6.994;2022-10-01T00:17:41;6.13;;;3.80;;
2021;SDS011;1015;49.756;6.994;2022-10-01T00:20:09;4.27;;;3.90;;
2021;SDS011;1015;49.756;6.994;2022-10-01T00:22:36;4.23;;;3.80;;
2021;SDS011;1015;49.756;6.994;2022-10-01T00:25:04;4.70;;;4.23;;
2021;SDS011;1015;49.756;6.994;2022-10-01T00:27:32;4.23;;;3.83;;
2021;SDS011;1015;49.756;6.994;2022-10-01T00:30:01;5.20;;;4.70;;
2021;SDS011;1015;49.756;6.994;2022-10-01T00:32:28;4.93;;;4.07;;
2021;SDS011;1015;49.756;6.994;2022-10-01T00:34:57;4.50;;;4.10;;
2021;SDS011;1015;49.756;6.994;2022-10-01T00:37:25;5.73;;;4.70;;
2021;SDS011;1015;49.756;6.994;2022-10-01T00:39:52;5.10;;;4.70;;
2021;SDS011;1015;49.756;6.994;2022-10-01T00:42:20;5.87;;;4.73;;
2021;SDS011;1015;49.756;6.994;2022-10-01T00:44:48;4.57;;;4.17;;
2021;SDS011;1015;49.756;6.994;2022-10-01T00:47:21;5.00;;;4.60;;
2021;SDS011;1015;49.756;6.994;2022-10-01T00:49:55;4.80;;;4.40;;
2021;SDS011;1015;49.756;6.994;2022-10-01T00:52:27;4.40;;;4.00;;
2021;SDS011;1015;49.756;6.994;2022-10-01T00:54:57;5.23;;;4.73;;
2021;SDS011;1015;49.756;6.994;2022-10-01T00:57:28;4.50;;;4.07;;
2021;SDS011;1015;49.756;6.994;2022-10-01T00:59:57;4.87;;;4.40;;
2021;SDS011;1015;49.756;6.994;2022-10-01T01:02:29;6.13;;;5.13;;
2021;SDS011;1015;49.756;6.994;2022-10-01T01:04:56;5.20;;;4.80;;
2021;SDS011;1015;49.756;6.994;2022-10-01T01:07:24;5.57;;;4.20;;
2021;SDS011;1015;49.756;6.994;2022-10-01T01:09:52;5.43;;;4.83;;
2021;SDS011;1015;49.756;6.994;2022-10-01T01:12:26;5.90;;;4.70;;
2021;SDS011;1015;49.756;6.994;2022-10-01T01:15:03;4.77;;;4.37;;
2021;SDS011;1015;49.756;6.994;2022-10-01T01:17:40;5.33;;;4.40;;
2021;SDS011;1015;49.756;6.994;2022-10-01T01:23:42;4.87;;;4.37;;
2021;SDS011;1015;49.756;6.994;2022-10-01T01:26:30;5.93;;;5.33;;
2021;SDS011;1015;49.756;6.994;2022-10-01T01:29:08;4.77;;;4.30;;
2021;SDS011;1015;49.756;6.994;2022-10-01T01:31:42;5.13;;;4.63;;
2021;SDS011;1015;49.756;6.994;2022-10-01T01:34:12;5.17;;;4.67;;
2021;SDS011;1015;49.756;6.994;2022-10-01T01:36:44;6.97;;;4.50;;
2021;SDS011;1015;49.756;6.994;2022-10-01T01:39:18;5.10;;;4.70;;
2021;SDS011;1015;49.756;6.994;2022-10-01T01:41:48;6.50;;;4.70;;
2021;SDS011;1015;49.756;6.994;2022-10-01T01:44:20;4.97;;;4.57;;
2021;SDS011;1015;49.756;6.994;2022-10-01T01:46:51;6.10;;;4.63;;
2021;SDS011;1015;49.756;6.994;2022-10-01T01:49:21;4.70;;;4.30;;
2021;SDS011;1015;49.756;6.994;2022-10-01T01:51:50;5.00;;;4.50;;
2021;SDS011;1015;49.756;6.994;2022-10-01T01:54:20;6.83;;;4.90;;
2021;SDS011;1015;49.756;6.994;2022-10-01T01:56:49;6.53;;;5.20;;
2021;SDS011;1015;49.756;6.994;2022-10-01T01:59:17;6.90;;;5.80;;
2021;SDS011;1015;49.756;6.994;2022-10-01T02:01:46;6.83;;;5.57;;
2021;SDS011;1015;49.756;6.994;2022-10-01T02:04:17;5.80;;;5.30;;
2021;SDS011;1015;49.756;6.994;2022-10-01T02:06:53;8.23;;;5.23;;
2021;SDS011;1015;49.756;6.994;2022-10-01T02:09:36;6.20;;;5.40;;
2021;SDS011;1015;49.756;6.994;2022-10-01T02:12:12;5.87;;;5.27;;
2021;SDS011;1015;49.756;6.994;2022-10-01T02:14:50;8.07;;;6.00;;
2021;SDS011;1015;49.756;6.994;2022-10-01T02:17:23;10.30;;;7.13;;
2021;SDS011;1015;49.756;6.994;2022-10-01T02:19:56;9.73;;;6.50;;
2021;SDS011;1015;49.756;6.994;2022-10-01T02:22:29;7.30;;;5.60;;
2021;SDS011;1015;49.756;6.994;2022-10-01T02:25:04;6.67;;;5.43;;
2021;SDS011;1015;49.756;6.994;2022-10-01T02:27:35;6.53;;;5.93;;
2021;SDS011;1015;49.756;6.994;2022-10-01T02:30:08;7.80;;;6.53;;
2021;SDS011;1015;49.756;6.994;2022-10-01T02:32:37;8.37;;;6.17;;
2021;SDS011;1015;49.756;6.994;2022-10-01T02:35:06;7.90;;;6.33;;
2021;SDS011;1015;49.756;6.994;2022-10-01T02:37:36;11.23;;;6.60;;
2021;SDS011;1015;49.756;6.994;2022-10-01T02:40:06;8.37;;;6.60;;
2021;SDS011;1015;49.756;6.994;2022-10-01T02:42:39;7.57;;;6.87;;
2021;SDS011;1015;49.756;6.994;2022-10-01T02:45:12;6.67;;;5.97;;
2021;SDS011;1015;49.756;6.994;2022-10-01T02:47:43;6.90;;;6.20;;
2021;SDS011;1015;49.756;6.994;2022-10-01T02:50:14;11.10;;;6.50;;
2021;SDS011;1015;49.756;6.994;2022-10-01T02:52:44;7.00;;;6.30;;
2021;SDS011;1015;49.756;6.994;2022-10-01T02:55:16;8.10;;;7.03;;
2021;SDS011;1015;49.756;6.994;2022-10-01T02:57:45;7.10;;;5.83;;
2021;SDS011;1015;49.756;6.994;2022-10-01T03:00:14;9.50;;;7.03;;
2021;SDS011;1015;49.756;6.994;2022-10-01T03:02:45;9.60;;;7.27;;
2021;SDS011;1015;49.756;6.994;2022-10-01T03:05:12;7.50;;;6.70;;
2021;SDS011;1015;49.756;6.994;2022-10-01T03:07:40;7.90;;;6.20;;
2021;SDS011;1015;49.756;6.994;2022-10-01T03:10:08;7.23;;;6.50;;
2021;SDS011;1015;49.756;6.994;2022-10-01T03:12:36;8.33;;;6.63;;
2021;SDS011;1015;49.756;6.994;2022-10-01T03:15:10;8.20;;;7.40;;
2021;SDS011;1015;49.756;6.994;2022-10-01T03:17:39;9.37;;;7.50;;
2021;SDS011;1015;49.756;6.994;2022-10-01T03:20:06;9.63;;;7.20;;
2021;SDS011;1015;49.756;6.994;2022-10-01T03:22:34;8.57;;;7.67;;
2021;SDS011;1015;49.756;6.994;2022-10-01T03:25:01;10.73;;;8.47;;
2021;SDS011;1015;49.756;6.994;2022-10-01T03:27:29;8.43;;;7.53;;
2021;SDS011;1015;49.756;6.994;2022-10-01T03:29:56;9.07;;;7.33;;
2021;SDS011;1015;49.756;6.994;2022-10-01T03:32:23;11.47;;;8.73;;
2021;SDS011;1015;49.756;6.994;2022-10-01T03:34:51;12.70;;;8.10;;
2021;SDS011;1015;49.756;6.994;2022-10-01T03:37:18;10.50;;;8.50;;
2021;SDS011;1015;49.756;6.994;2022-10-01T03:39:45;10.80;;;9.80;;
2021;SDS011;1015;49.756;6.994;2022-10-01T03:42:12;10.70;;;9.40;;
2021;SDS011;1015;49.756;6.994;2022-10-01T03:44:40;9.93;;;8.90;;
2021;SDS011;1015;49.756;6.994;2022-10-01T03:47:07;10.10;;;9.10;;
2021;SDS011;1015;49.756;6.994;2022-10-01T03:49:35;10.47;;;9.47;;
2021;SDS011;1015;49.756;6.994;2022-10-01T03:52:04;9.17;;;8.27;;
2021;SDS011;1015;49.756;6.994;2022-10-01T03:54:31;9.80;;;8.80;;
2021;SDS011;1015;49.756;6.994;2022-10-01T03:56:58;9.23;;;8.33;;
2021;SDS011;1015;49.756;6.994;2022-10-01T03:59:25;10.10;;;9.10;;
2021;SDS011;1015;49.756;6.994;2022-10-01T04:01:53;9.40;;;8.40;;
2021;SDS011;1015;49.756;6.994;2022-10-01T04:04:20;9.70;;;8.70;;
2021;SDS011;1015;49.756;6.994;2022-10-01T04:06:47;8.40;;;7.60;;
2021;SDS011;1015;49.756;6.994;2022-10-01T04:09:15;8.70;;;7.90;;
2021;SDS011;1015;49.756;6.994;2022-10-01T04:11:42;8.30;;;7.40;;
2021;SDS011;1015;49.756;6.994;2022-10-01T04:14:09;8.77;;;7.87;;
2021;SDS011;1015;49.756;6.994;2022-10-01T04:16:36;9.10;;;8.20;;
2021;SDS011;1015;49.756;6.994;2022-10-01T04:19:03;10.20;;;9.00;;
2021;SDS011;1015;49.756;6.994;2022-10-01T04:21:30;9.60;;;8.70;;
2021;SDS011;1015;49.756;6.994;2022-10-01T04:23:57;10.10;;;9.00;;
2021;SDS011;1015;49.756;6.994;2022-10-01T04:26:26;11.17;;;10.07;;
2021;SDS011;1015;49.756;6.994;2022-10-01T04:28:53;9.00;;;8.10;;
2021;SDS011;1015;49.756;6.994;2022-10-01T04:31:20;9.67;;;8.67;;
2021;SDS011;1015;49.756;6.994;2022-10-01T04:33:50;8.73;;;7.93;;
2021;SDS011;1015;49.756;6.994;2022-10-01T04:36:17;12.33;;;7.87;;
2021;SDS011;1015;49.756;6.994;2022-10-01T04:38:44;10.33;;;7.63;;
2021;SDS011;1015;49.756;6.994;2022-10-01T04:41:11;8.67;;;7.87;;
2021;SDS011;1015;49.756;6.994;2022-10-01T04:43:40;11.10;;;8.20;;
2021;SDS011;1015;49.756;6.994;2022-10-01T04:46:07;7.57;;;6.87;;
2021;SDS011;1015;49.756;6.994;2022-10-01T04:48:34;7.30;;;6.60;;
2021;SDS011;1015;49.756;6.994;2022-10-01T04:51:01;7.40;;;6.70;;
2021;SDS011;1015;49.756;6.994;2022-10-01T04:53:28;7.23;;;6.63;;
2021;SDS011;1015;49.756;6.994;2022-10-01T04:55:55;7.83;;;7.00;;
2021;SDS011;1015;49.756;6.994;2022-10-01T04:58:22;7.67;;;6.87;;
2021;SDS011;1015;49.756;6.994;2022-10-01T05:00:50;7.47;;;6.77;;
2021;SDS011;1015;49.756;6.994;2022-10-01T05:03:17;7.13;;;6.47;;
2021;SDS011;1015;49.756;6.994;2022-10-01T05:05:44;8.60;;;6.23;;
2021;SDS011;1015;49.756;6.994;2022-10-01T05:08:11;7.37;;;6.57;;
2021;SDS011;1015;49.756;6.994;2022-10-01T05:10:39;6.10;;;5.60;;
2021;SDS011;1015;49.756;6.994;2022-10-01T05:13:05;5.40;;;5.00;;
2021;SDS011;1015;49.756;6.994;2022-10-01T05:15:33;5.63;;;5.13;;
2021;SDS011;1015;49.756;6.994;2022-10-01T05:18:02;5.87;;;5.30;;
2021;SDS011;1015;49.756;6.994;2022-10-01T05:20:29;5.27;;;4.77;;
2021;SDS011;1015;49.756;6.994;2022-10-01T05:22:58;4.90;;;4.50;;
2021;SDS011;1015;49.756;6.994;2022-10-01T05:25:24;4.37;;;4.07;;
2021;SDS011;1015;49.756;6.994;2022-10-01T05:27:51;4.50;;;4.20;;
2021;SDS011;1015;49.756;6.994;2022-10-01T05:30:18;5.13;;;4.67;;
2021;SDS011;1015;49.756;6.994;2022-10-01T05:32:54;4.47;;;4.07;;
2021;SDS011;1015;49.756;6.994;2022-10-01T05:35:24;3.83;;;3.53;;
2021;SDS011;1015;49.756;6.994;2022-10-01T05:37:52;3.87;;;3.57;;
2021;SDS011;1015;49.756;6.994;2022-10-01T05:40:20;3.70;;;3.50;;
2021;SDS011;1015;49.756;6.994;2022-10-01T05:42:48;3.50;;;3.20;;
2021;SDS011;1015;49.756;6.994;2022-10-01T05:45:15;3.10;;;2.90;;
2021;SDS011;1015;49.756;6.994;2022-10-01T05:47:46;3.20;;;2.90;;
2021;SDS011;1015;49.756;6.994;2022-10-01T05:50:14;3.00;;;2.70;;
2021;SDS011;1015;49.756;6.994;2022-10-01T05:52:49;3.10;;;2.80;;
2021;SDS011;1015;49.756;6.994;2022-10-01T05:55:17;2.80;;;2.60;;
2021;SDS011;1015;49.756;6.994;2022-10-01T05:57:52;2.60;;;2.40;;
2021;SDS011;1015;49.756;6.994;2022-10-01T06:00:20;2.80;;;2.60;;
2021;SDS011;1015;49.756;6.994;2022-10-01T06:02:50;5.13;;;4.43;;
2021;SDS011;1015;49.756;6.994;2022-10-01T06:05:18;5.23;;;4.73;;
2021;SDS011;1015;49.756;6.994;2022-10-01T06:07:45;3.70;;;2.53;;
2021;SDS011;1015;49.756;6.994;2022-10-01T06:10:14;2.60;;;2.40;;
2021;SDS011;1015;49.756;6.994;2022-10-01T06:12:41;2.30;;;1.97;;
2021;SDS011;1015;49.756;6.994;2022-10-01T06:15:09;2.93;;;2.67;;
2021;SDS011;1015;49.756;6.994;2022-10-01T06:17:36;3.10;;;2.80;;
2021;SDS011;1015;49.756;6.994;2022-10-01T06:20:08;4.07;;;3.77;;
2021;SDS011;1015;49.756;6.994;2022-10-01T06:22:37;4.80;;;4.50;;
2021;SDS011;1015;49.756;6.994;2022-10-01T06:25:06;3.40;;;3.10;;
2021;SDS011;1015;49.756;6.994;2022-10-01T06:27:36;6.33;;;5.83;;
2021;SDS011;1015;49.756;6.994;2022-10-01T06:30:03;6.20;;;5.70;;
2021;SDS011;1015;49.756;6.994;2022-10-01T06:32:31;7.03;;;6.43;;
2021;SDS011;1015;49.756;6.994;2022-10-01T06:34:58;3.83;;;3.53;;
2021;SDS011;1015;49.756;6.994;2022-10-01T06:37:25;5.43;;;5.03;;
2021;SDS011;1015;49.756;6.994;2022-10-01T06:39:52;6.50;;;5.90;;
2021;SDS011;1015;49.756;6.994;2022-10-01T06:42:19;5.77;;;5.27;;
2021;SDS011;1015;49.756;6.994;2022-10-01T06:44:48;5.30;;;4.90;;
2021;SDS011;1015;49.756;6.994;2022-10-01T06:47:15;3.50;;;3.20;;
2021;SDS011;1015;49.756;6.994;2022-10-01T06:49:41;4.37;;;4.07;;
2021;SDS011;1015;49.756;6.994;2022-10-01T06:52:08;4.17;;;3.87;;
2021;SDS011;1015;49.756;6.994;2022-10-01T06:54:53;3.90;;;3.60;;
2021;SDS011;1015;49.756;6.994;2022-10-01T06:57:20;4.10;;;3.80;;
2021;SDS011;1015;49.756;6.994;2022-10-01T06:59:48;5.03;;;4.67;;
2021;SDS011;1015;49.756;6.994;2022-10-01T07:02:19;3.80;;;3.50;;
2021;SDS011;1015;49.756;6.994;2022-10-01T07:04:53;5.13;;;4.73;;
2021;SDS011;1015;49.756;6.994;2022-10-01T07:07:22;4.30;;;4.00;;
2021;SDS011;1015;49.756;6.994;2022-10-01T07:09:50;4.80;;;4.40;;
2021;SDS011;1015;49.756;6.994;2022-10-01T07:12:17;2.60;;;2.40;;
2021;SDS011;1015;49.756;6.994;2022-10-01T07:14:45;2.23;;;2.10;;
2021;SDS011;1015;49.756;6.994;2022-10-01T07:17:13;3.77;;;3.47;;
2021;SDS011;1015;49.756;6.994;2022-10-01T07:19:40;1.90;;;1.77;;
2021;SDS011;1015;49.756;6.994;2022-10-01T07:22:08;1.73;;;1.63;;
2021;SDS011;1015;49.756;6.994;2022-10-01T07:24:35;2.73;;;2.53;;
2021;SDS011;1015;49.756;6.994;2022-10-01T07:27:02;8.30;;;6.83;;
2021;SDS011;1015;49.756;6.994;2022-10-01T07:29:29;2.93;;;2.63;;
2021;SDS011;1015;49.756;6.994;2022-10-01T07:31:56;1.67;;;1.57;;
2021;SDS011;1015;49.756;6.994;2022-10-01T07:34:26;2.03;;;1.93;;
2021;SDS011;1015;49.756;6.994;2022-10-01T07:36:55;2.03;;;1.83;;
2021;SDS011;1015;49.756;6.994;2022-10-01T07:39:22;1.60;;;1.50;;
2021;SDS011;1015;49.756;6.994;2022-10-01T07:41:49;1.23;;;1.17;;
2021;SDS011;1015;49.756;6.994;2022-10-01T07:44:16;2.50;;;2.30;;
2021;SDS011;1015;49.756;6.994;2022-10-01T07:46:43;1.50;;;1.40;;
2021;SDS011;1015;49.756;6.994;2022-10-01T07:49:11;1.90;;;1.80;;
2021;SDS011;1015;49.756;6.994;2022-10-01T07:51:40;2.10;;;2.00;;
2021;SDS011;1015;49.756;6.994;2022-10-01T07:54:08;2.23;;;2.03;;
2021;SDS011;1015;49.756;6.994;2022-10-01T07:56:36;1.63;;;1.53;;
2021;SDS011;1015;49.756;6.994;2022-10-01T07:59:03;1.80;;;1.70;;
2021;SDS011;1015;49.756;6.994;2022-10-01T08:01:30;1.90;;;1.80;;
2021;SDS011;1015;49.756;6.994;2022-10-01T08:03:57;1.90;;;1.80;;
2021;SDS011;1015;49.756;6.994;2022-10-01T08:06:24;1.60;;;1.50;;
2021;SDS011;1015;49.756;6.994;2022-10-01T08:08:52;2.40;;;1.40;;
2021;SDS011;1015;49.756;6.994;2022-10-01T08:11:19;1.03;;;1.00;;
2021;SDS011;1015;49.756;6.994;2022-10-01T08:13:46;1.07;;;1.00;;
2021;SDS011;1015;49.756;6.994;2022-10-01T08:16:13;1.03;;;0.87;;
2021;SDS011;1015;49.756;6.994;2022-10-01T08:18:40;1.70;;;1.10;;
2021;SDS011;1015;49.756;6.994;2022-10-01T08:21:07;1.10;;;1.10;;
2021;SDS011;1015;49.756;6.994;2022-10-01T08:23:34;1.27;;;1.20;;
2021;SDS011;1015;49.756;6.994;2022-10-01T08:26:03;1.20;;;1.10;;
2021;SDS011;1015;49.756;6.994;2022-10-01T08:28:32;0.90;;;0.90;;
2021;SDS011;1015;49.756;6.994;2022-10-01T08:31:02;2.70;;;1.30;;
2021;SDS011;1015;49.756;6.994;2022-10-01T08:33:33;1.30;;;1.20;;
2021;SDS011;1015;49.756;6.994;2022-10-01T08:36:00;1.20;;;1.10;;
2021;SDS011;1015;49.756;6.994;2022-10-01T08:38:28;1.00;;;0.90;;
2021;SDS011;1015;49.756;6.994;2022-10-01T08:40:55;1.10;;;1.10;;
2021;SDS011;1015;49.756;6.994;2022-10-01T08:43:30;1.33;;;1.23;;
2021;SDS011;1015;49.756;6.994;2022-10-01T08:46:01;1.37;;;1.17;;
2021;SDS011;1015;49.756;6.994;2022-10-01T08:48:43;0.90;;;0.90;;
2021;SDS011;1015;49.756;6.994;2022-10-01T08:51:17;0.90;;;0.90;;
2021;SDS011;1015;49.756;6.994;2022-10-01T08:53:51;0.90;;;0.90;;
2021;SDS011;1015;49.756;6.994;2022-10-01T08:56:23;1.37;;;1.27;;
2021;SDS011;1015;49.756;6.994;2022-10-01T08:58:57;1.03;;;0.93;;
2021;SDS011;1015;49.756;6.994;2022-10-01T09:01:26;1.00;;;0.80;;
2021;SDS011;1015;49.756;6.994;2022-10-01T09:03:54;0.87;;;0.70;;
2021;SDS011;1015;49.756;6.994;2022-10-01T09:06:21;0.50;;;0.50;;
2021;SDS011;1015;49.756;6.994;2022-10-01T09:08:59;0.90;;;0.70;;
2021;SDS011;1015;49.756;6.994;2022-10-01T09:11:43;2.03;;;0.93;;
2021;SDS011;1015;49.756;6.994;2022-10-01T09:14:22;0.93;;;0.70;;
2021;SDS011;1015;49.756;6.994;2022-10-01T09:17:03;0.80;;;0.80;;
2021;SDS011;1015;49.756;6.994;2022-10-01T09:19:54;0.87;;;0.60;;
2021;SDS011;1015;49.756;6.994;2022-10-01T09:22:30;0.40;;;0.40;;
2021;SDS011;1015;49.756;6.994;2022-10-01T09:25:04;0.50;;;0.50;;
2021;SDS011;1015;49.756;6.994;2022-10-01T09:27:42;0.50;;;0.50;;
2021;SDS011;1015;49.756;6.994;2022-10-01T09:30:12;1.70;;;0.60;;
2021;SDS011;1015;49.756;6.994;2022-10-01T09:32:45;0.60;;;0.60;;
2021;SDS011;1015;49.756;6.994;2022-10-01T09:35:26;0.60;;;0.60;;
2021;SDS011;1015;49.756;6.994;2022-10-01T09:37:59;0.80;;;0.80;;
2021;SDS011;1015;49.756;6.994;2022-10-01T09:40:32;1.33;;;0.93;;
2021;SDS011;1015;49.756;6.994;2022-10-01T09:43:02;0.80;;;0.80;;
2021;SDS011;1015;49.756;6.994;2022-10-01T09:45:33;1.20;;;0.90;;
2021;SDS011;1015;49.756;6.994;2022-10-01T09:48:09;0.80;;;0.80;;
2021;SDS011;1015;49.756;6.994;2022-10-01T09:50:44;1.17;;;1.10;;
2021;SDS011;1015;49.756;6.994;2022-10-01T09:53:19;2.27;;;1.20;;
2021;SDS011;1015;49.756;6.994;2022-10-01T09:55:51;0.97;;;0.97;;
2021;SDS011;1015;49.756;6.994;2022-10-01T09:58:21;1.20;;;1.10;;
2021;SDS011;1015;49.756;6.994;2022-10-01T10:00:52;6.97;;;5.60;;
2021;SDS011;1015;49.756;6.994;2022-10-01T10:03:21;2.10;;;1.27;;
2021;SDS011;1015;49.756;6.994;2022-10-01T10:05:51;1.90;;;1.67;;
2021;SDS011;1015;49.756;6.994;2022-10-01T10:08:20;1.57;;;1.23;;
2021;SDS011;1015;49.756;6.994;2022-10-01T10:10:53;1.80;;;1.40;;
2021;SDS011;1015;49.756;6.994;2022-10-01T10:13:26;9.03;;;8.00;;
2021;SDS011;1015;49.756;6.994;2022-10-01T10:16:04;2.40;;;2.20;;
2021;SDS011;1015;49.756;6.994;2022-10-01T10:18:35;2.30;;;2.10;;
2021;SDS011;1015;49.756;6.994;2022-10-01T10:21:04;2.10;;;1.87;;
2021;SDS011;1015;49.756;6.994;2022-10-01T10:23:33;2.50;;;1.93;;
2021;SDS011;1015;49.756;6.994;2022-10-01T10:26:14;1.90;;;1.70;;
2021;SDS011;1015;49.756;6.994;2022-10-01T10:28:45;2.00;;;1.80;;
2021;SDS011;1015;49.756;6.994;2022-10-01T10:31:14;1.97;;;1.43;;
2021;SDS011;1015;49.756;6.994;2022-10-01T10:33:45;1.70;;;1.60;;
2021;SDS011;1015;49.756;6.994;2022-10-01T10:36:15;1.60;;;1.50;;
2021;SDS011;1015;49.756;6.994;2022-10-01T10:38:44;3.33;;;1.70;;
2021;SDS011;1015;49.756;6.994;2022-10-01T10:41:15;2.40;;;1.63;;
2021;SDS011;1015;49.756;6.994;2022-10-01T10:43:44;3.73;;;1.83;;
2021;SDS011;1015;49.756;6.994;2022-10-01T10:46:20;2.03;;;1.60;;
2021;SDS011;1015;49.756;6.994;2022-10-01T10:48:53;2.50;;;1.80;;
2021;SDS011;1015;49.756;6.994;2022-10-01T10:51:28;2.17;;;1.40;;
2021;SDS011;1015;49.756;6.994;2022-10-01T10:54:14;2.50;;;1.50;;
2021;SDS011;1015;49.756;6.994;2022-10-01T10:56:49;2.33;;;1.97;;
2021;SDS011;1015;49.756;6.994;2022-10-01T10:59:22;2.20;;;1.30;;
2021;SDS011;1015;49.756;6.994;2022-10-01T11:01:50;2.20;;;1.70;;
2021;SDS011;1015;49.756;6.994;2022-10-01T11:04:19;2.70;;;1.60;;
2021;SDS011;1015;49.756;6.994;2022-10-01T11:06:53;2.57;;;1.50;;
2021;SDS011;1015;49.756;6.994;2022-10-01T11:09:21;1.20;;;1.10;;
2021;SDS011;1015;49.756;6.994;2022-10-01T11:11:53;1.60;;;1.50;;
2021;SDS011;1015;49.756;6.994;2022-10-01T11:14:30;2.63;;;1.70;;
2021;SDS011;1015;49.756;6.994;2022-10-01T11:17:14;1.93;;;1.50;;
2021;SDS011;1015;49.756;6.994;2022-10-01T11:20:00;2.70;;;1.70;;
2021;SDS011;1015;49.756;6.994;2022-10-01T11:22:42;2.80;;;1.20;;
2021;SDS011;1015;49.756;6.994;2022-10-01T11:25:25;1.47;;;1.30;;
2021;SDS011;1015;49.756;6.994;2022-10-01T11:28:05;1.30;;;1.20;;
2021;SDS011;1015;49.756;6.994;2022-10-01T11:30:46;2.63;;;1.20;;
2021;SDS011;1015;49.756;6.994;2022-10-01T11:33:24;1.77;;;1.33;;
2021;SDS011;1015;49.756;6.994;2022-10-01T11:35:59;1.43;;;1.17;;
2021;SDS011;1015;49.756;6.994;2022-10-01T11:38:37;2.20;;;1.23;;
2021;SDS011;1015;49.756;6.994;2022-10-01T11:43:58;2.40;;;1.10;;
2021;SDS011;1015;49.756;6.994;2022-10-01T11:46:31;1.00;;;0.80;;
2021;SDS011;1015;49.756;6.994;2022-10-01T11:49:13;1.80;;;0.80;;
2021;SDS011;1015;49.756;6.994;2022-10-01T11:51:51;2.00;;;0.70;;
2021;SDS011;1015;49.756;6.994;2022-10-01T11:54:27;1.30;;;0.90;;
2021;SDS011;1015;49.756;6.994;2022-10-01T11:56:56;1.93;;;0.70;;
2021;SDS011;1015;49.756;6.994;2022-10-01T11:59:43;1.67;;;0.83;;
2021;SDS011;1015;49.756;6.994;2022-10-01T12:02:15;0.90;;;0.67;;
2021;SDS011;1015;49.756;6.994;2022-10-01T12:04:50;0.60;;;0.60;;
2021;SDS011;1015;49.756;6.994;2022-10-01T12:07:23;0.93;;;0.50;;
2021;SDS011;1015;49.756;6.994;2022-10-01T12:09:56;2.60;;;0.57;;
2021;SDS011;1015;49.756;6.994;2022-10-01T12:12:29;0.60;;;0.50;;
2021;SDS011;1015;49.756;6.994;2022-10-01T12:15:03;1.77;;;0.60;;
2021;SDS011;1015;49.756;6.994;2022-10-01T12:17:37;0.93;;;0.70;;
2021;SDS011;1015;49.756;6.994;2022-10-01T12:20:14;0.70;;;0.70;;
2021;SDS011;1015;49.756;6.994;2022-10-01T12:22:46;0.80;;;0.73;;
2021;SDS011;1015;49.756;6.994;2022-10-01T12:25:15;1.03;;;0.70;;
2021;SDS011;1015;49.756;6.994;2022-10-01T12:27:46;0.70;;;0.50;;
2021;SDS011;1015;49.756;6.994;2022-10-01T12:30:22;0.97;;;0.70;;
2021;SDS011;1015;49.756;6.994;2022-10-01T12:33:06;1.27;;;0.97;;
2021;SDS011;1015;49.756;6.994;2022-10-01T12:35:50;1.40;;;0.80;;
2021;SDS011;1015;49.756;6.994;2022-10-01T12:38:25;2.20;;;1.00;;
2021;SDS011;1015;49.756;6.994;2022-10-01T12:41:03;2.20;;;1.10;;
2021;SDS011;1015;49.756;6.994;2022-10-01T12:43:47;4.17;;;1.20;;
2021;SDS011;1015;49.756;6.994;2022-10-01T12:46:30;3.57;;;1.50;;
2021;SDS011;1015;49.756;6.994;2022-10-01T12:49:05;2.40;;;1.30;;
2021;SDS011;1015;49.756;6.994;2022-10-01T12:51:48;3.90;;;1.30;;
2021;SDS011;1015;49.756;6.994;2022-10-01T12:54:24;2.57;;;1.30;;
2021;SDS011;1015;49.756;6.994;2022-10-01T12:57:10;3.43;;;1.83;;
2021;SDS011;1015;49.756;6.994;2022-10-01T12:59:51;5.60;;;1.60;;
2021;SDS011;1015;49.756;6.994;2022-10-01T13:02:44;5.60;;;1.63;;
2021;SDS011;1015;49.756;6.994;2022-10-01T13:05:25;6.67;;;2.17;;
2021;SDS011;1015;49.756;6.994;2022-10-01T13:08:07;3.53;;;2.13;;
2021;SDS011;1015;49.756;6.994;2022-10-01T13:10:47;6.93;;;2.20;;
2021;SDS011;1015;49.756;6.994;2022-10-01T13:13:24;6.30;;;2.17;;
2021;SDS011;1015;49.756;6.994;2022-10-01T13:15:57;10.70;;;2.00;;
2021;SDS011;1015;49.756;6.994;2022-10-01T13:18:33;3.93;;;1.70;;
2021;SDS011;1015;49.756;6.994;2022-10-01T13:21:13;5.53;;;2.00;;
2021;SDS011;1015;49.756;6.994;2022-10-01T13:23:47;2.93;;;1.73;;
2021;SDS011;1015;49.756;6.994;2022-10-01T13:26:21;5.80;;;2.10;;
2021;SDS011;1015;49.756;6.994;2022-10-01T13:28:58;4.00;;;1.97;;
2021;SDS011;1015;49.756;6.994;2022-10-01T13:31:33;5.10;;;2.20;;
2021;SDS011;1015;49.756;6.994;2022-10-01T13:36:50;4.87;;;2.00;;
2021;SDS011;1015;49.756;6.994;2022-10-01T13:39:22;4.90;;;2.00;;
2021;SDS011;1015;49.756;6.994;2022-10-01T13:41:49;3.47;;;1.77;;
2021;SDS011;1015;49.756;6.994;2022-10-01T13:44:23;3.60;;;1.47;;
2021;SDS011;1015;49.756;6.994;2022-10-01T13:46:54;3.83;;;1.60;;
2021;SDS011;1015;49.756;6.994;2022-10-01T13:49:28;5.60;;;2.20;;
2021;SDS011;1015;49.756;6.994;2022-10-01T13:51:56;5.90;;;1.80;;
2021;SDS011;1015;49.756;6.994;2022-10-01T13:54:26;2.53;;;1.57;;
2021;SDS011;1015;49.756;6.994;2022-10-01T13:57:06;5.27;;;1.80;;
2021;SDS011;1015;49.756;6.994;2022-10-01T13:59:34;6.53;;;1.80;;
2021;SDS011;1015;49.756;6.994;2022-10-01T14:02:02;3.13;;;1.77;;
2021;SDS011;1015;49.756;6.994;2022-10-01T14:04:55;4.40;;;1.80;;
2021;SDS011;1015;49.756;6.994;2022-10-01T14:07:33;5.40;;;2.10;;
2021;SDS011;1015;49.756;6.994;2022-10-01T14:10:04;4.97;;;2.20;;
2021;SDS011;1015;49.756;6.994;2022-10-01T14:12:36;5.87;;;2.00;;
2021;SDS011;1015;49.756;6.994;2022-10-01T14:15:25;9.10;;;2.10;;
2021;SDS011;1015;49.756;6.994;2022-10-01T14:18:18;4.17;;;2.00;;
2021;SDS011;1015;49.756;6.994;2022-10-01T14:20:50;3.80;;;1.83;;
2021;SDS011;1015;49.756;6.994;2022-10-01T14:23:23;5.93;;;2.17;;
2021;SDS011;1015;49.756;6.994;2022-10-01T14:25:58;5.50;;;2.30;;
2021;SDS011;1015;49.756;6.994;2022-10-01T14:28:33;3.33;;;1.77;;
2021;SDS011;1015;49.756;6.994;2022-10-01T14:31:11;5.07;;;2.10;;
2021;SDS011;1015;49.756;6.994;2022-10-01T14:33:58;4.90;;;2.43;;
2021;SDS011;1015;49.756;6.994;2022-10-01T14:36:32;4.57;;;2.30;;
2021;SDS011;1015;49.756;6.994;2022-10-01T14:39:02;6.10;;;2.67;;
2021;SDS011;1015;49.756;6.994;2022-10-01T14:41:37;7.27;;;2.47;;
2021;SDS011;1015;49.756;6.994;2022-10-01T14:44:15;7.80;;;2.90;;
2021;SDS011;1015;49.756;6.994;2022-10-01T14:46:45;7.57;;;3.70;;
2021;SDS011;1015;49.756;6.994;2022-10-01T14:49:17;8.10;;;2.80;;
2021;SDS011;1015;49.756;6.994;2022-10-01T14:51:49;9.10;;;3.33;;
2021;SDS011;1015;49.756;6.994;2022-10-01T14:54:20;8.90;;;3.30;;
2021;SDS011;1015;49.756;6.994;2022-10-01T14:56:49;7.23;;;2.73;;
2021;SDS011;1015;49.756;6.994;2022-10-01T14:59:18;7.43;;;3.13;;
2021;SDS011;1015;49.756;6.994;2022-10-01T15:01:54;3.53;;;2.63;;
2021;SDS011;1015;49.756;6.994;2022-10-01T15:04:23;4.80;;;3.20;;
2021;SDS011;1015;49.756;6.994;2022-10-01T15:06:50;7.20;;;3.27;;
2021;SDS011;1015;49.756;6.994;2022-10-01T15:09:17;6.27;;;3.43;;
2021;SDS011;1015;49.756;6.994;2022-10-01T15:11:45;12.17;;;3.63;;
2021;SDS011;1015;49.756;6.994;2022-10-01T15:14:17;6.40;;;2.93;;
2021;SDS011;1015;49.756;6.994;2022-10-01T15:16:46;10.10;;;2.90;;
2021;SDS011;1015;49.756;6.994;2022-10-01T15:19:14;10.63;;;3.23;;
2021;SDS011;1015;49.756;6.994;2022-10-01T15:21:46;6.53;;;3.23;;
2021;SDS011;1015;49.756;6.994;2022-10-01T15:24:20;7.37;;;3.10;;
2021;SDS011;1015;49.756;6.994;2022-10-01T15:26:50;5.30;;;2.77;;
2021;SDS011;1015;49.756;6.994;2022-10-01T15:29:20;6.13;;;2.90;;
2021;SDS011;1015;49.756;6.994;2022-10-01T15:31:48;11.20;;;3.30;;
2021;SDS011;1015;49.756;6.994;2022-10-01T15:34:18;6.40;;;2.60;;
2021;SDS011;1015;49.756;6.994;2022-10-01T15:36:47;9.90;;;2.70;;
2021;SDS011;1015;49.756;6.994;2022-10-01T15:39:27;9.50;;;2.90;;
2021;SDS011;1015;49.756;6.994;2022-10-01T15:41:56;4.27;;;2.10;;
2021;SDS011;1015;49.756;6.994;2022-10-01T15:44:45;5.63;;;2.80;;
2021;SDS011;1015;49.756;6.994;2022-10-01T15:47:22;4.60;;;2.10;;
2021;SDS011;1015;49.756;6.994;2022-10-01T15:49:59;6.50;;;3.00;;